Notre-Dame-Du-Nord, Canada
Current Conditions -  °F | °C
As of 4:00 AM on Sunday 26 Oct 2014 (Local Time) from CYXR Reporting Station
NA  
Wind Chill: 31°   Ceiling: NA
Heat Index: 39°   Visibility: 9mi
Dew Point: 36°   Wind: 14mph
Humidity: 87%   Direction: 280°W
Pressure: 29.49"   Gusts: 20mph
Location:  47.6°N, 79.65°W
Report Text: CYXR 260800Z AUTO 28012G17KT 9SM 04/02 A2949 RMK CLD MISG SLP994
Loading
Personal Weather Stations






























Interactive Weather Map
Tropical Storm Tracking
New forecast layout! Learn more

10-Day Weather Forecast

Advertisements
Track Severe Weather on mobile